ADDS METAR Data INFO
IDs: Format: Raw Decoded Include TAF

Data at: 1247 UTC 19 Oct 2017

PAVA 191156Z AUTO 35009KT 9SM -SN FEW004 SCT028 BKN033 M01/M02 A2967 RMK AO2 SNB14 SLP132 P0000 60000 T10111022 10000 21022 56004 FZRANO
PAVA 191149Z AUTO 35009KT 4SM -SN BR FEW004 SCT009 BKN026 M01/M02 A2967 RMK AO2 SNB14 P0000 FZRANO
PAVA 191121Z AUTO 30009KT 8SM -SN FEW005 SCT034 SCT045 M01/M03 A2967 RMK AO2 SNB14 P0000 FZRANO
PAVA 191056Z AUTO 31008KT 10SM FEW036 SCT090 M02/M02 A2967 RMK AO2 SNB09E24 SLP132 P0000 T10171022 FZRANO
PAVA 190956Z AUTO 30005KT 10SM FEW007 BKN050 BKN090 M02/M02 A2968 RMK AO2 UPB15E19B42E46SNE15B19E42 SLP135 P0000 T10171022 FZRANO
PAVA 190943Z AUTO 35008KT 9SM UP FEW012 SCT026 BKN050 M01/M02 A2968 RMK AO2 UPB15E19B42SNE15B19E42 P0000 FZRANO
PAVA 190929Z AUTO 33009KT 4SM -SN BR FEW009 BKN019 OVC060 M01/M01 A2968 RMK AO2 UPB15E19SNE15B19 CIG 013V025 P0000 FZRANO
PAVA 190911Z AUTO 32010KT 9SM -SN SCT010 BKN033 OVC046 M01/M01 A2968 RMK AO2 P0000 FZRANO
PAVA 190902Z AUTO 32013G16KT 4SM -SN BR SCT010 BKN027 BKN033 M01/M01 A2968 RMK AO2 P0000 FZRANO
PAVA 190856Z AUTO 33010KT 1 1/2SM -SN BR SCT008 BKN013 BKN038 M01/M02 A2968 RMK AO2 SLP136 P0000 60000 T10111017 53008 FZRANO
PAVA 190854Z AUTO 32007KT 1 3/4SM -SN BR SCT008 SCT013 BKN029 M01/M02 A2968 RMK AO2 P0000 FZRANO
PAVA 190851Z AUTO 32005KT 2 1/2SM -SN BR FEW008 SCT013 BKN038 M01/M02 A2968 RMK AO2 P0000 FZRANO
PAVA 190837Z AUTO 33004KT 9SM FEW018 M01/M02 A2967 RMK AO2 SNE34 P0000 FZRANO
PAVA 190816Z AUTO 36008KT 6SM -SN BR SCT003 SCT011 BKN022 M01/M01 A2967 RMK AO2 P0000 FZRANO
PAVA 190811Z AUTO 01010KT 2 1/2SM -SN BR BKN003 BKN011 M01/M01 A2967 RMK AO2 CIG 002V007 P0000 FZRANO
PAVA 190804Z AUTO 01009KT 2 1/2SM -SN BR SCT003 BKN007 BKN011 M01/M01 A2967 RMK AO2 P0000 FZRANO
PAVA 190800Z AUTO 01012KT 1 1/4SM -SN BR BKN003 BKN036 M01/M01 A2967 RMK AO2 CIG 002V008 P0000 FZRANO
PAVA 190756Z AUTO 3/4SM -SN BR BKN003 OVC038 M01/M01 A2967 RMK AO2 WSHFT 0739 UPE0657B39E41SNB0657E39B41 CIG 002V008 SLP131 P0000 T10061011 400281017 FZRANO
PAVA 190753Z AUTO 01018KT 1/2SM SN FZFG BKN003 BKN019 OVC038 M01/M01 A2967 RMK AO2 PK WND 34030/0744 WSHFT 0739 UPE0657B39E41SNB0657E39B41 CIG 002V008 P0000 400281017 FZRANO
PAVA 190746Z AUTO 35020G30KT 3/4SM -SN BR SCT003 BKN010 OVC038 M01/M01 A2967 RMK AO2 PK WND 34030/0744 UPE0657B39E41SNB0657E39B41 CIG 007V015 P0000 FZRANO
PAVA 190744Z AUTO 34026G30KT 1 1/2SM -SN BR SCT006 BKN012 OVC038 M01/M01 A2967 RMK AO2 PK WND 34030/0744 UPE0657B39E41SNB0657E39B41 P0000 FZRANO
PAVA 190742Z AUTO 33019G27KT 2 1/2SM -SN BR FEW006 SCT012 BKN020 M01/M01 A2967 RMK AO2 PK WND 34027/0742 UPE0657B39E41SNB0657E39B41 P0000 FZRANO
PAVA 190731Z AUTO 31011KT 5SM -SN BR FEW004 SCT010 BKN038 M01/M01 A2966 RMK AO2 UPE0657SNB0657 P0000 FZRANO
PAVA 190723Z AUTO 30012KT 3SM -SN BR SCT004 BKN010 M01/M01 A2966 RMK AO2 UPE0657SNB0657 P0000 FZRANO
PAVA 190717Z AUTO 31011KT 3SM -SN BR SCT004 SCT041 M01/M01 A2967 RMK AO2 UPE0657SNB0657 P0000 FZRANO
PAVA 190714Z AUTO 32010KT 1 1/4SM -SN BR SCT004 BKN043 M01/M01 A2967 RMK AO2 VIS 1/2V5 UPE0657SNB0657 P0000 FZRANO
PAVA 190710Z AUTO 34008KT 3/4SM -SN BR SCT004 BKN043 M01/M01 A2967 RMK AO2 UPE0657SNB0657 P0000 FZRANO
PAVA 190705Z AUTO 35013KT 1/2SM -SN FZFG BKN004 BKN010 BKN043 M01/M01 A2967 RMK AO2 UPE0657SNB0657 P0000 FZRANO
PAVA 190701Z AUTO 35015KT 1SM -SN BR SCT004 BKN023 OVC043 00/M01 A2967 RMK AO2 UPE0657SNB0657 P0000 FZRANO
PAVA 190658Z AUTO 35016KT 1 3/4SM -SN BR SCT008 BKN030 OVC043 00/M01 A2966 RMK AO2 UPE57SNB57 P0000 FZRANO
PAVA 190656Z AUTO 34014KT 3SM UP BR FEW008 SCT023 BKN034 00/M01 A2967 RMK AO2 UPB0558E06B26E28B55SNE0558B28E50 SLP131 P0000 T00001011 FZRANO
PAVA 190618Z AUTO 31008KT 10SM FEW013 SCT029 BKN038 M01/M01 A2966 RMK AO2 UPB0558E06SNE0558 P0000 FZRANO
PAVA 190556Z AUTO 30011KT 9SM -SN FEW007 SCT015 BKN029 00/M01 A2965 RMK AO2 SLP128 P0000 60000 T00001006 10028 21011 50001 FZRANO
PAVA 190544Z AUTO 31010KT 3SM -SN BR SCT007 BKN015 BKN027 00/M01 A2966 RMK AO2 P0000 FZRANO
PAVA 190535Z AUTO 30014KT 1 3/4SM -SN BR SCT007 SCT016 BKN026 M01/M01 A2966 RMK AO2 P0000 FZRANO
PAVA 190532Z AUTO 30012KT 3SM -SN BR FEW007 SCT016 BKN026 M01/M02 A2966 RMK AO2 P0000 FZRANO
PAVA 190518Z AUTO 28006KT 9SM -SN FEW014 SCT043 M01/M02 A2966 RMK AO2 P0000 FZRANO
PAVA 190505Z AUTO 33008KT 5SM -SN BR FEW009 SCT015 BKN024 M01/M02 A2966 RMK AO2 P0000 FZRANO
PAVA 190456Z AUTO 34010KT 3SM -SN BR SCT009 SCT015 BKN032 00/M01 A2966 RMK AO2 UPB26E49SNB32E45B49 SLP129 P0000 T00001011 FZRANO
PAVA 190446Z AUTO 31013KT 4SM UP BR FEW009 BKN029 OVC038 00/M01 A2966 RMK AO2 UPB26SNB32E45 P0000 FZRANO
PAVA 190356Z AUTO 29013KT 9SM FEW015 BKN046 OVC085 00/M01 A2965 RMK AO2 SNE55 SLP127 P0000 T00001011 FZRANO
PAVA 190339Z AUTO 29017G25KT 3SM -SN BR SCT005 BKN015 OVC041 00/M01 A2965 RMK AO2 CIG 010V021 P0000 FZRANO
PAVA 190328Z AUTO 30017KT 2 1/2SM -SN BR SCT005 BKN012 OVC018 00/M01 A2965 RMK AO2 P0000 FZRANO
PAVA 190325Z AUTO 31017KT 1 1/4SM -SN BR BKN005 BKN012 OVC018 00/M01 A2966 RMK AO2 CIG 003V009 P0000 FZRANO
PAVA 190322Z AUTO 31015KT 3/4SM -SN BR BKN005 BKN012 OVC024 00/M01 A2966 RMK AO2 CIG 003V009 P0000 FZRANO
PAVA 190317Z AUTO 32021KT 1/2SM -SN FG SCT005 BKN010 OVC024 00/M01 A2966 RMK AO2 CIG 007V015 P0000 FZRANO
PAVA 190312Z AUTO 32020KT 1SM -SN BR SCT007 BKN012 OVC033 01/M01 A2966 RMK AO2 P0000 FZRANO
PAVA 190308Z AUTO 32020KT 2 1/2SM -SN BR FEW007 BKN012 OVC033 01/M01 A2966 RMK AO2 P0000 FZRANO
PAVA 190306Z AUTO 31021KT 3SM -SN BR SCT010 BKN025 OVC033 01/M01 A2965 RMK AO2 P0000 FZRANO
PAVA 190256Z AUTO 31016KT 6SM -SN BR SCT024 SCT030 BKN035 01/M01 A2965 RMK AO2 UPB48E51RAB51E56SNB56 SLP127 P0000 60000 T00061011 55001 FZRANO
PAVA 190156Z AUTO 32009KT 10SM CLR 01/M01 A2964 RMK AO2 RAB01E13 SLP124 P0000 T00061011 FZRANO
PAVA 190056Z AUTO 32017KT 10SM SCT032 BKN046 BKN100 02/M02 A2965 RMK AO2 UPE00RAB30E46 SLP125 P0000 T00171017 FZRANO
PAVA 182356Z AUTO 26003KT 10SM UP FEW028 BKN043 BKN055 01/00 A2966 RMK AO2 RAE51UPB03E10B51 SLP129 P0000 60000 T00110000 10017 21011 55001 FZRANO
PAVA 182256Z AUTO 32004KT 10SM -RA FEW007 SCT035 BKN050 01/00 A2965 RMK AO2 RAB02E06B43SNB06E43 SLP128 P0000 T00060000 FZRANO
PAVA 182242Z AUTO 33005KT 8SM -SN SCT009 BKN035 OVC042 01/M01 A2966 RMK AO2 RAB02E06SNB06 P0000 FZRANO
PAVA 182234Z AUTO 34008KT 3SM -SN BR SCT006 BKN011 OVC035 01/M01 A2966 RMK AO2 RAB02E06SNB06 P0000 FZRANO
PAVA 182229Z AUTO 34007KT 2SM -SN BR BKN009 BKN014 OVC020 01/M01 A2966 RMK AO2 VIS 1 1/2V4 RAB02E06SNB06 CIG 005V009 P0000 FZRANO
PAVA 182220Z AUTO 33010KT 1 3/4SM -SN BR FEW008 BKN014 OVC026 01/M01 A2966 RMK AO2 RAB02E06SNB06 P0000 FZRANO
PAVA 182211Z AUTO 31009KT 2SM -SN BR FEW007 SCT015 BKN024 01/M01 A2966 RMK AO2 VIS 3/4V5 RAB02E06SNB06 P0000 FZRANO
PAVA 182201Z AUTO 30013G17KT 7SM FEW007 BKN026 BKN047 01/00 A2966 RMK AO2 FZRANO
PAVA 182156Z AUTO 27007KT 10SM SCT024 SCT047 01/01 A2966 RMK AO2 RAB08E38SNB17E31 SLP129 P0000 T00110006 FZRANO
PAVA 182140Z AUTO 25004KT 10SM FEW008 SCT035 BKN047 01/00 A2966 RMK AO2 RAB08E38SNB17E31 P0000 FZRANO
PAVA 182124Z AUTO 28005KT 3SM -SN BR FEW008 SCT017 BKN027 01/M01 A2967 RMK AO2 RAB08E17SNB17 P0000 FZRANO
PAVA 182118Z AUTO 30005KT 1 3/4SM -SN BR SCT008 BKN017 BKN027 01/00 A2966 RMK AO2 VIS 3/4V5 RAB08E17SNB17 P0000 FZRANO
PAVA 182114Z AUTO 32006KT 3SM -RA BR FEW006 SCT020 BKN026 01/00 A2966 RMK AO2 RAB08 P0000 FZRANO
PAVA 182056Z AUTO 34006KT 9SM FEW006 SCT037 00/M01 A2966 RMK AO2 UPB07E12RAB12E13SNB13E51 SLP130 P0000 60000 T00001006 53008 FZRANO
PAVA 182044Z AUTO 31006KT 4SM -SN BR SCT006 BKN012 BKN037 00/M01 A2966 RMK AO2 UPB07E12RAB12E13SNB13 P0000 FZRANO
PAVA 182041Z AUTO 31006KT 2SM -SN BR BKN006 BKN012 BKN037 00/M01 A2966 RMK AO2 UPB07E12RAB12E13SNB13 CIG 003V008 P0000 FZRANO
PAVA 182034Z AUTO 29009KT 1SM -SN BR BKN006 OVC010 00/M01 A2966 RMK AO2 UPB07E12RAB12E13SNB13 CIG 003V008 P0000 FZRANO
PAVA 182029Z AUTO 31007KT 3/4SM -SN BR SCT006 BKN010 OVC014 00/M01 A2966 RMK AO2 UPB07E12RAB12E13SNB13 CIG 007V012 P0000 FZRANO
PAVA 182025Z AUTO 30013KT 1SM -SN BR BKN006 BKN012 OVC026 00/M01 A2966 RMK AO2 UPB07E12RAB12E13SNB13 CIG 003V008 P0000 FZRANO
PAVA 182017Z AUTO 32018G21KT 2 1/2SM -SN BR BKN006 BKN026 01/M01 A2966 RMK AO2 UPB07E12RAB12E13SNB13 CIG 003V007 P0000 FZRANO
PAVA 182010Z AUTO 29012KT 10SM UP SCT006 BKN026 01/M01 A2966 RMK AO2 UPB07 P0000 FZRANO
PAVA 181956Z AUTO 28008KT 10SM FEW006 SCT026 00/M01 A2966 RMK AO2 UPB24E28SNB28E48 SLP128 P0000 T00001006 FZRANO
PAVA 181949Z AUTO 28013KT 9SM SCT006 SCT011 00/M01 A2965 RMK AO2 UPB24E28SNB28E48 P0000 FZRANO
PAVA 181940Z AUTO 29010KT 3SM -SN BR SCT006 BKN011 BKN040 00/M01 A2965 RMK AO2 UPB24E28SNB28 P0000 FZRANO
PAVA 181930Z AUTO 32013KT 1 1/2SM -SN BR FEW006 BKN010 BKN040 00/M01 A2965 RMK AO2 UPB24E28SNB28 CIG 007V012 P0000 FZRANO
PAVA 181927Z AUTO 33017KT 2 1/2SM UP BR FEW006 SCT010 SCT040 00/00 A2965 RMK AO2 UPB24 P0000 FZRANO
PAVA 181856Z AUTO 26009KT 10SM FEW100 M01/M02 A2964 RMK AO2 SLP123 T10111017 FZRANO
PAVA 181756Z AUTO 29004KT 10SM SCT047 M01/M02 A2964 RMK AO2 SNE16 SLP122 P0000 60000 T10111017 10006 21017 53002 FZRANO
PAVA 181725Z AUTO 34007KT 10SM FEW020 SCT025 BKN060 M01/M01 A2963 RMK AO2 SNE16 P0000 FZRANO
PAVA 181656Z AUTO 34012G24KT 4SM -SN BR FEW009 BKN021 OVC042 00/M01 A2963 RMK AO2 UPB30E40SNB40 SLP118 P0000 T00001006 FZRANO
PAVA 181649Z AUTO 33019G24KT 5SM -SN BR FEW006 BKN029 OVC040 01/M01 A2963 RMK AO2 UPB30E40SNB40 P0000 FZRANO
PAVA 181556Z AUTO 30009KT 10SM FEW023 BKN033 BKN044 00/M01 A2963 RMK AO2 SNB03E15B34E49 SLP118 P0000 T00001011 FZRANO
PAVA 181456Z AUTO 26009KT 10SM SCT041 BKN080 M02/M02 A2963 RMK AO2 UPB1357E01SNB01E23 SLP120 P0000 60000 T10171022 58001 FZRANO
PAVA 181419Z AUTO 29006KT 9SM -SN FEW011 SCT028 BKN043 00/M01 A2964 RMK AO2 UPB1357E01SNB01 P0000 FZRANO
PAVA 181356Z AUTO 32010KT 10SM SCT016 BKN024 OVC070 M01/M01 A2964 RMK AO2 UPB20E32 SLP124 P0000 T10061006 FZRANO
PAVA 181337Z AUTO 34004KT 10SM BKN024 OVC034 M01/M02 A2964 RMK AO2 UPB20E32 P0000 FZRANO
PAVA 181256Z AUTO 29004KT 7SM FEW010 SCT032 BKN075 M01/M01 A2964 RMK AO2 UPB10E16SNB16E49 SLP123 P0000 T10061011 FZRANO
PAVA 181249Z AUTO 32003KT 9SM SCT008 SCT020 BKN032 00/M01 A2964 RMK AO2 UPB10E16SNB16E49 P0000 FZRANO
PAVA 181233Z AUTO 34006KT 3SM -SN BR BKN008 OVC031 00/M01 A2964 RMK AO2 UPB10E16SNB16 CIG 005V014 P0000 FZRANO
PAVA 181222Z AUTO 35010KT 1 1/2SM -SN BR BKN006 BKN028 00/M01 A2964 RMK AO2 UPB10E16SNB16 CIG 005V014 P0000 FZRANO
PAVA 181218Z AUTO 35011KT 2 1/2SM -SN BR SCT006 SCT012 BKN028 00/M01 A2964 RMK AO2 UPB10E16SNB16 P0000 FZRANO
PAVA 181212Z AUTO 34012KT 9SM UP FEW011 BKN028 BKN034 M01/M01 A2964 RMK AO2 UPB10 P0000 FZRANO
PAVA 181156Z AUTO 33004KT 10SM FEW030 SCT048 00/M01 A2964 RMK AO2 RAB08E13UPB35E39SNB13E35 SLP121 P0000 60000 T00001006 10017 20000 51004 FZRANO
PAVA 181138Z AUTO 34005KT 9SM UP FEW007 BKN030 OVC050 00/M01 A2963 RMK AO2 RAB08E13UPB35SNB13E35 P0000 FZRANO
PAVA 181129Z AUTO 33008KT 6SM -SN BR SCT010 BKN034 OVC050 00/M01 A2964 RMK AO2 RAB08E13SNB13 P0000 FZRANO
PAVA 181124Z AUTO 33012KT 4SM -SN BR FEW007 BKN012 OVC035 01/M01 A2963 RMK AO2 RAB08E13SNB13 P0000 FZRANO
PAVA 181116Z AUTO 32014KT 3SM -SN BR SCT007 SCT012 OVC035 01/M01 A2963 RMK AO2 RAB08E13SNB13 P0000 FZRANO
PAVA 181056Z AUTO 29009KT 10SM OVC037 01/M01 A2963 RMK AO2 RAB10E30 SLP120 P0000 T00061006 FZRANO
PAVA 180956Z AUTO 28009KT 10SM OVC049 00/M01 A2963 RMK AO2 SLP117 T00001011 FZRANO
PAVA 180856Z AUTO 31005KT 10SM OVC042 02/M02 A2962 RMK AO2 SLP116 60000 T00171017 53004 FZRANO
PAVA 180756Z AUTO 31012KT 10SM OVC040 02/M02 A2962 RMK AO2 SLP115 T00171017 400441033 FZRANO
PAVA 180656Z AUTO 33004KT 10SM FEW025 OVC038 02/00 A2961 RMK AO2 RAB14E23UPB23E46 SLP112 P0000 T00170000 FZRANO
PAVA 180556Z AUTO 35008KT 10SM FEW016 BKN021 OVC041 01/00 A2961 RMK AO2 RAB13E29 SLP112 P0000 60000 T00110000 10039 20006 51008 FZRANO
PAVA 180528Z AUTO 31007KT 10SM -RA SCT021 OVC034 01/00 A2960 RMK AO2 RAB13 P0000 FZRANO
PAVA 180520Z AUTO 31007KT 8SM -RA SCT021 BKN026 OVC038 02/00 A2960 RMK AO2 RAB13 P0000 FZRANO
PAVA 180456Z AUTO 32005KT 10SM SCT029 OVC036 01/00 A2960 RMK AO2 SLP108 T00110000 FZRANO
PAVA 180441Z AUTO 34005KT 10SM BKN029 BKN036 OVC055 01/00 A2960 RMK AO2 FZRANO
PAVA 180356Z AUTO 35010KT 10SM SCT040 BKN055 02/00 A2958 RMK AO2 SLP103 T00170000 FZRANO
PAVA 180256Z AUTO 31005KT 10SM FEW036 02/01 A2956 RMK AO2 SLP096 60000 T00220006 53004 FZRANO
PAVA 180206Z AUTO 31008KT 10SM FEW019 04/01 A2955 RMK AO2
PAVA 180156Z AUTO 31007KT 10SM SCT019 BKN026 04/01 A2955 RMK AO2 SLP092 T00390011
PAVA 180148Z AUTO 00000KT 10SM SCT019 BKN026 03/01 A2955 RMK AO2
PAVA 180056Z AUTO 30003KT 10SM FEW021 SCT027 BKN035 02/01 A2955 RMK AO2 RAB37E54 SLP092 P0000 T00220006 FZRANO